sensor_id;sensor_type;location;lat;lon;timestamp;P1;durP1;ratioP1;P2;durP2;ratioP2
21959;SDS011;11144;43.030;25.108;2023-04-01T00:01:23;12.80;;;6.20;;
21959;SDS011;11144;43.030;25.108;2023-04-01T00:02:56;10.40;;;6.53;;
21959;SDS011;11144;43.030;25.108;2023-04-01T00:04:30;8.85;;;5.25;;
21959;SDS011;11144;43.030;25.108;2023-04-01T00:06:05;11.18;;;5.25;;
21959;SDS011;11144;43.030;25.108;2023-04-01T00:07:38;9.70;;;5.63;;
21959;SDS011;11144;43.030;25.108;2023-04-01T00:09:11;9.90;;;6.22;;
21959;SDS011;11144;43.030;25.108;2023-04-01T00:10:45;10.73;;;6.05;;
21959;SDS011;11144;43.030;25.108;2023-04-01T00:12:17;15.38;;;6.47;;
21959;SDS011;11144;43.030;25.108;2023-04-01T00:13:50;13.82;;;7.10;;
21959;SDS011;11144;43.030;25.108;2023-04-01T00:15:23;19.40;;;9.57;;
21959;SDS011;11144;43.030;25.108;2023-04-01T00:16:56;17.95;;;7.75;;
21959;SDS011;11144;43.030;25.108;2023-04-01T00:18:29;11.95;;;7.20;;
21959;SDS011;11144;43.030;25.108;2023-04-01T00:20:02;12.98;;;7.50;;
21959;SDS011;11144;43.030;25.108;2023-04-01T00:21:37;10.27;;;6.35;;
21959;SDS011;11144;43.030;25.108;2023-04-01T00:23:11;11.90;;;6.15;;
21959;SDS011;11144;43.030;25.108;2023-04-01T00:24:43;11.38;;;6.35;;
21959;SDS011;11144;43.030;25.108;2023-04-01T00:26:16;11.95;;;6.15;;
21959;SDS011;11144;43.030;25.108;2023-04-01T00:27:51;13.82;;;6.55;;
21959;SDS011;11144;43.030;25.108;2023-04-01T00:29:25;9.00;;;5.35;;
21959;SDS011;11144;43.030;25.108;2023-04-01T00:31:03;14.18;;;6.43;;
21959;SDS011;11144;43.030;25.108;2023-04-01T00:32:37;11.30;;;6.00;;
21959;SDS011;11144;43.030;25.108;2023-04-01T00:34:11;12.70;;;5.97;;
21959;SDS011;11144;43.030;25.108;2023-04-01T00:35:45;10.30;;;6.57;;
21959;SDS011;11144;43.030;25.108;2023-04-01T00:37:20;10.75;;;6.53;;
21959;SDS011;11144;43.030;25.108;2023-04-01T00:38:54;13.40;;;6.45;;
21959;SDS011;11144;43.030;25.108;2023-04-01T00:40:28;15.23;;;7.32;;
21959;SDS011;11144;43.030;25.108;2023-04-01T00:42:04;10.45;;;6.43;;
21959;SDS011;11144;43.030;25.108;2023-04-01T00:43:37;12.00;;;6.80;;
21959;SDS011;11144;43.030;25.108;2023-04-01T00:45:24;12.55;;;7.10;;
21959;SDS011;11144;43.030;25.108;2023-04-01T00:47:00;14.35;;;7.78;;
21959;SDS011;11144;43.030;25.108;2023-04-01T00:48:34;13.25;;;7.75;;
21959;SDS011;11144;43.030;25.108;2023-04-01T00:50:11;13.25;;;8.25;;
21959;SDS011;11144;43.030;25.108;2023-04-01T00:51:43;14.90;;;7.38;;
21959;SDS011;11144;43.030;25.108;2023-04-01T00:53:21;10.82;;;6.22;;
21959;SDS011;11144;43.030;25.108;2023-04-01T00:54:55;12.80;;;6.80;;
21959;SDS011;11144;43.030;25.108;2023-04-01T00:56:33;13.15;;;6.38;;
21959;SDS011;11144;43.030;25.108;2023-04-01T00:58:09;10.77;;;6.03;;
21959;SDS011;11144;43.030;25.108;2023-04-01T00:59:47;13.65;;;6.47;;
21959;SDS011;11144;43.030;25.108;2023-04-01T01:01:24;12.40;;;7.15;;
21959;SDS011;11144;43.030;25.108;2023-04-01T01:02:58;9.63;;;5.78;;
21959;SDS011;11144;43.030;25.108;2023-04-01T01:04:32;11.25;;;6.50;;
21959;SDS011;11144;43.030;25.108;2023-04-01T01:06:11;8.38;;;5.72;;
21959;SDS011;11144;43.030;25.108;2023-04-01T01:07:58;10.45;;;5.70;;
21959;SDS011;11144;43.030;25.108;2023-04-01T01:09:40;7.55;;;5.22;;
21959;SDS011;11144;43.030;25.108;2023-04-01T01:11:25;9.32;;;5.75;;
21959;SDS011;11144;43.030;25.108;2023-04-01T01:13:14;9.50;;;5.22;;
21959;SDS011;11144;43.030;25.108;2023-04-01T01:14:53;10.98;;;5.72;;
21959;SDS011;11144;43.030;25.108;2023-04-01T01:16:34;8.40;;;5.53;;
21959;SDS011;11144;43.030;25.108;2023-04-01T01:18:14;11.80;;;5.70;;
21959;SDS011;11144;43.030;25.108;2023-04-01T01:22:22;11.60;;;5.53;;
21959;SDS011;11144;43.030;25.108;2023-04-01T01:26:16;21.05;;;11.90;;
21959;SDS011;11144;43.030;25.108;2023-04-01T01:28:14;15.13;;;8.70;;
21959;SDS011;11144;43.030;25.108;2023-04-01T01:31:59;16.88;;;9.25;;
21959;SDS011;11144;43.030;25.108;2023-04-01T01:33:57;18.80;;;9.52;;
21959;SDS011;11144;43.030;25.108;2023-04-01T01:35:42;21.58;;;12.80;;
21959;SDS011;11144;43.030;25.108;2023-04-01T01:37:23;22.88;;;12.05;;
21959;SDS011;11144;43.030;25.108;2023-04-01T01:39:00;19.05;;;9.90;;
21959;SDS011;11144;43.030;25.108;2023-04-01T01:40:36;14.40;;;8.23;;
21959;SDS011;11144;43.030;25.108;2023-04-01T01:42:13;15.75;;;8.27;;
21959;SDS011;11144;43.030;25.108;2023-04-01T01:43:48;14.52;;;8.63;;
21959;SDS011;11144;43.030;25.108;2023-04-01T01:45:25;15.88;;;8.75;;
21959;SDS011;11144;43.030;25.108;2023-04-01T01:46:59;18.58;;;9.63;;
21959;SDS011;11144;43.030;25.108;2023-04-01T01:48:34;13.75;;;7.97;;
21959;SDS011;11144;43.030;25.108;2023-04-01T01:50:08;14.02;;;7.90;;
21959;SDS011;11144;43.030;25.108;2023-04-01T01:51:44;14.50;;;7.63;;
21959;SDS011;11144;43.030;25.108;2023-04-01T01:53:19;13.38;;;7.35;;
21959;SDS011;11144;43.030;25.108;2023-04-01T01:54:53;12.38;;;6.57;;
21959;SDS011;11144;43.030;25.108;2023-04-01T01:56:31;13.02;;;6.07;;
21959;SDS011;11144;43.030;25.108;2023-04-01T01:58:08;12.05;;;6.43;;
21959;SDS011;11144;43.030;25.108;2023-04-01T01:59:44;9.45;;;5.30;;
21959;SDS011;11144;43.030;25.108;2023-04-01T02:01:28;9.40;;;5.68;;
21959;SDS011;11144;43.030;25.108;2023-04-01T02:03:12;10.95;;;6.13;;
21959;SDS011;11144;43.030;25.108;2023-04-01T02:04:47;8.63;;;5.47;;
21959;SDS011;11144;43.030;25.108;2023-04-01T02:06:23;7.88;;;5.07;;
21959;SDS011;11144;43.030;25.108;2023-04-01T02:08:02;9.70;;;5.78;;
21959;SDS011;11144;43.030;25.108;2023-04-01T02:09:39;15.52;;;7.13;;
21959;SDS011;11144;43.030;25.108;2023-04-01T02:11:15;11.15;;;6.30;;
21959;SDS011;11144;43.030;25.108;2023-04-01T02:12:53;12.68;;;6.97;;
21959;SDS011;11144;43.030;25.108;2023-04-01T02:14:35;12.32;;;6.40;;
21959;SDS011;11144;43.030;25.108;2023-04-01T02:16:13;11.93;;;5.93;;
21959;SDS011;11144;43.030;25.108;2023-04-01T02:17:52;13.48;;;6.45;;
21959;SDS011;11144;43.030;25.108;2023-04-01T02:19:29;11.45;;;6.20;;
21959;SDS011;11144;43.030;25.108;2023-04-01T02:21:07;9.50;;;6.28;;
21959;SDS011;11144;43.030;25.108;2023-04-01T02:22:43;10.55;;;5.25;;
21959;SDS011;11144;43.030;25.108;2023-04-01T02:24:21;13.10;;;5.68;;
21959;SDS011;11144;43.030;25.108;2023-04-01T02:25:56;10.23;;;5.68;;
21959;SDS011;11144;43.030;25.108;2023-04-01T02:27:29;10.23;;;5.78;;
21959;SDS011;11144;43.030;25.108;2023-04-01T02:29:03;11.32;;;6.13;;
21959;SDS011;11144;43.030;25.108;2023-04-01T02:30:39;11.23;;;5.50;;
21959;SDS011;11144;43.030;25.108;2023-04-01T02:32:16;11.35;;;5.50;;
21959;SDS011;11144;43.030;25.108;2023-04-01T02:33:52;10.68;;;5.93;;
21959;SDS011;11144;43.030;25.108;2023-04-01T02:35:26;8.05;;;5.32;;
21959;SDS011;11144;43.030;25.108;2023-04-01T02:36:58;14.48;;;7.30;;
21959;SDS011;11144;43.030;25.108;2023-04-01T02:38:32;19.10;;;7.57;;
21959;SDS011;11144;43.030;25.108;2023-04-01T02:40:10;13.27;;;6.10;;
21959;SDS011;11144;43.030;25.108;2023-04-01T02:41:45;12.25;;;6.63;;
21959;SDS011;11144;43.030;25.108;2023-04-01T02:43:18;9.65;;;6.20;;
21959;SDS011;11144;43.030;25.108;2023-04-01T02:44:52;8.50;;;5.68;;
21959;SDS011;11144;43.030;25.108;2023-04-01T02:46:26;10.90;;;5.65;;
21959;SDS011;11144;43.030;25.108;2023-04-01T02:47:59;10.05;;;6.00;;
21959;SDS011;11144;43.030;25.108;2023-04-01T02:49:31;10.60;;;6.15;;
21959;SDS011;11144;43.030;25.108;2023-04-01T02:51:04;11.77;;;5.85;;
21959;SDS011;11144;43.030;25.108;2023-04-01T02:52:38;12.23;;;5.70;;
21959;SDS011;11144;43.030;25.108;2023-04-01T02:54:11;9.52;;;5.78;;
21959;SDS011;11144;43.030;25.108;2023-04-01T02:55:48;11.20;;;5.80;;
21959;SDS011;11144;43.030;25.108;2023-04-01T02:57:23;9.88;;;5.20;;
21959;SDS011;11144;43.030;25.108;2023-04-01T02:58:57;12.02;;;6.10;;
21959;SDS011;11144;43.030;25.108;2023-04-01T03:00:30;9.50;;;5.43;;
21959;SDS011;11144;43.030;25.108;2023-04-01T03:02:03;9.77;;;5.57;;
21959;SDS011;11144;43.030;25.108;2023-04-01T03:03:38;8.32;;;5.97;;
21959;SDS011;11144;43.030;25.108;2023-04-01T03:05:11;11.88;;;5.65;;
21959;SDS011;11144;43.030;25.108;2023-04-01T03:06:44;12.07;;;6.00;;
21959;SDS011;11144;43.030;25.108;2023-04-01T03:08:17;8.98;;;6.05;;
21959;SDS011;11144;43.030;25.108;2023-04-01T03:09:50;9.05;;;6.20;;
21959;SDS011;11144;43.030;25.108;2023-04-01T03:11:25;15.05;;;5.90;;
21959;SDS011;11144;43.030;25.108;2023-04-01T03:12:58;8.52;;;5.55;;
21959;SDS011;11144;43.030;25.108;2023-04-01T03:14:32;14.38;;;6.53;;
21959;SDS011;11144;43.030;25.108;2023-04-01T03:16:06;10.95;;;6.53;;
21959;SDS011;11144;43.030;25.108;2023-04-01T03:17:39;11.88;;;6.35;;
21959;SDS011;11144;43.030;25.108;2023-04-01T03:19:14;10.18;;;6.43;;
21959;SDS011;11144;43.030;25.108;2023-04-01T03:20:46;15.18;;;6.47;;
21959;SDS011;11144;43.030;25.108;2023-04-01T03:22:20;10.43;;;6.28;;
21959;SDS011;11144;43.030;25.108;2023-04-01T03:23:54;13.88;;;9.23;;
21959;SDS011;11144;43.030;25.108;2023-04-01T03:25:26;10.32;;;6.63;;
21959;SDS011;11144;43.030;25.108;2023-04-01T03:27:01;18.25;;;7.93;;
21959;SDS011;11144;43.030;25.108;2023-04-01T03:28:35;11.45;;;6.55;;
21959;SDS011;11144;43.030;25.108;2023-04-01T03:30:07;11.35;;;6.40;;
21959;SDS011;11144;43.030;25.108;2023-04-01T03:31:51;8.85;;;5.32;;
21959;SDS011;11144;43.030;25.108;2023-04-01T03:33:24;10.20;;;6.05;;
21959;SDS011;11144;43.030;25.108;2023-04-01T03:34:56;11.30;;;6.60;;
21959;SDS011;11144;43.030;25.108;2023-04-01T03:36:30;12.60;;;7.00;;
21959;SDS011;11144;43.030;25.108;2023-04-01T03:38:03;11.50;;;7.20;;
21959;SDS011;11144;43.030;25.108;2023-04-01T03:39:37;10.95;;;6.40;;
21959;SDS011;11144;43.030;25.108;2023-04-01T03:41:12;15.85;;;8.32;;
21959;SDS011;11144;43.030;25.108;2023-04-01T03:42:48;24.02;;;9.65;;
21959;SDS011;11144;43.030;25.108;2023-04-01T03:44:22;16.55;;;7.50;;
21959;SDS011;11144;43.030;25.108;2023-04-01T03:45:57;17.45;;;7.78;;
21959;SDS011;11144;43.030;25.108;2023-04-01T03:47:30;13.45;;;7.60;;
21959;SDS011;11144;43.030;25.108;2023-04-01T03:49:06;10.55;;;6.38;;
21959;SDS011;11144;43.030;25.108;2023-04-01T03:50:43;12.02;;;6.88;;
21959;SDS011;11144;43.030;25.108;2023-04-01T03:52:19;9.88;;;6.50;;
21959;SDS011;11144;43.030;25.108;2023-04-01T03:53:52;15.25;;;7.28;;
21959;SDS011;11144;43.030;25.108;2023-04-01T03:55:26;13.50;;;6.68;;
21959;SDS011;11144;43.030;25.108;2023-04-01T03:56:58;14.00;;;7.38;;
21959;SDS011;11144;43.030;25.108;2023-04-01T03:58:34;11.77;;;7.22;;
21959;SDS011;11144;43.030;25.108;2023-04-01T04:00:10;10.82;;;6.60;;
21959;SDS011;11144;43.030;25.108;2023-04-01T04:01:50;10.93;;;6.32;;
21959;SDS011;11144;43.030;25.108;2023-04-01T04:03:23;11.65;;;6.60;;
21959;SDS011;11144;43.030;25.108;2023-04-01T04:04:58;11.45;;;6.47;;
21959;SDS011;11144;43.030;25.108;2023-04-01T04:06:32;15.27;;;7.95;;
21959;SDS011;11144;43.030;25.108;2023-04-01T04:08:06;12.38;;;7.40;;
21959;SDS011;11144;43.030;25.108;2023-04-01T04:09:40;11.00;;;5.97;;
21959;SDS011;11144;43.030;25.108;2023-04-01T04:11:13;14.35;;;6.70;;
21959;SDS011;11144;43.030;25.108;2023-04-01T04:12:48;10.80;;;5.93;;
21959;SDS011;11144;43.030;25.108;2023-04-01T04:14:25;11.80;;;6.72;;
21959;SDS011;11144;43.030;25.108;2023-04-01T04:15:59;12.95;;;6.53;;
21959;SDS011;11144;43.030;25.108;2023-04-01T04:17:34;13.05;;;6.65;;
21959;SDS011;11144;43.030;25.108;2023-04-01T04:19:08;15.40;;;8.35;;
21959;SDS011;11144;43.030;25.108;2023-04-01T04:20:43;37.72;;;15.85;;
21959;SDS011;11144;43.030;25.108;2023-04-01T04:22:18;27.23;;;11.10;;
21959;SDS011;11144;43.030;25.108;2023-04-01T04:23:52;19.48;;;8.98;;
21959;SDS011;11144;43.030;25.108;2023-04-01T04:25:25;11.52;;;6.88;;
21959;SDS011;11144;43.030;25.108;2023-04-01T04:26:59;9.70;;;6.05;;
21959;SDS011;11144;43.030;25.108;2023-04-01T04:28:33;12.45;;;6.80;;
21959;SDS011;11144;43.030;25.108;2023-04-01T04:30:08;24.05;;;10.55;;
21959;SDS011;11144;43.030;25.108;2023-04-01T04:31:42;17.80;;;7.78;;
21959;SDS011;11144;43.030;25.108;2023-04-01T04:33:16;20.08;;;9.80;;
21959;SDS011;11144;43.030;25.108;2023-04-01T04:34:48;22.85;;;10.70;;
21959;SDS011;11144;43.030;25.108;2023-04-01T04:36:23;18.85;;;8.35;;
21959;SDS011;11144;43.030;25.108;2023-04-01T04:37:57;14.23;;;8.00;;
21959;SDS011;11144;43.030;25.108;2023-04-01T04:39:30;16.95;;;7.05;;
21959;SDS011;11144;43.030;25.108;2023-04-01T04:41:07;15.35;;;5.80;;
21959;SDS011;11144;43.030;25.108;2023-04-01T04:42:42;12.48;;;6.28;;
21959;SDS011;11144;43.030;25.108;2023-04-01T04:44:19;10.55;;;6.63;;
21959;SDS011;11144;43.030;25.108;2023-04-01T04:45:54;11.60;;;6.45;;
21959;SDS011;11144;43.030;25.108;2023-04-01T04:47:27;23.42;;;9.93;;
21959;SDS011;11144;43.030;25.108;2023-04-01T04:48:59;23.55;;;12.45;;
21959;SDS011;11144;43.030;25.108;2023-04-01T04:50:33;37.45;;;17.58;;
21959;SDS011;11144;43.030;25.108;2023-04-01T04:52:06;60.78;;;24.27;;
21959;SDS011;11144;43.030;25.108;2023-04-01T04:53:39;48.88;;;20.77;;
21959;SDS011;11144;43.030;25.108;2023-04-01T04:55:13;39.83;;;18.00;;
21959;SDS011;11144;43.030;25.108;2023-04-01T04:56:50;21.92;;;10.68;;
21959;SDS011;11144;43.030;25.108;2023-04-01T04:58:25;18.33;;;10.93;;
21959;SDS011;11144;43.030;25.108;2023-04-01T04:59:59;34.22;;;14.75;;
21959;SDS011;11144;43.030;25.108;2023-04-01T05:01:47;22.92;;;12.45;;
21959;SDS011;11144;43.030;25.108;2023-04-01T05:03:21;20.85;;;11.25;;
21959;SDS011;11144;43.030;25.108;2023-04-01T05:04:54;20.27;;;11.05;;
21959;SDS011;11144;43.030;25.108;2023-04-01T05:06:28;19.42;;;9.70;;
21959;SDS011;11144;43.030;25.108;2023-04-01T05:08:02;13.30;;;7.90;;
21959;SDS011;11144;43.030;25.108;2023-04-01T05:09:36;20.70;;;10.18;;
21959;SDS011;11144;43.030;25.108;2023-04-01T05:11:10;24.67;;;11.52;;
21959;SDS011;11144;43.030;25.108;2023-04-01T05:12:47;19.80;;;10.13;;
21959;SDS011;11144;43.030;25.108;2023-04-01T05:14:22;21.80;;;9.80;;
21959;SDS011;11144;43.030;25.108;2023-04-01T05:16:03;28.83;;;12.48;;
21959;SDS011;11144;43.030;25.108;2023-04-01T05:17:42;24.48;;;10.13;;
21959;SDS011;11144;43.030;25.108;2023-04-01T05:19:15;16.13;;;8.68;;
21959;SDS011;11144;43.030;25.108;2023-04-01T05:20:49;20.58;;;9.63;;
21959;SDS011;11144;43.030;25.108;2023-04-01T05:22:23;15.73;;;8.60;;
21959;SDS011;11144;43.030;25.108;2023-04-01T05:23:57;16.50;;;8.77;;
21959;SDS011;11144;43.030;25.108;2023-04-01T05:25:31;16.70;;;8.50;;
21959;SDS011;11144;43.030;25.108;2023-04-01T05:27:05;18.20;;;9.05;;
21959;SDS011;11144;43.030;25.108;2023-04-01T05:28:42;22.33;;;11.00;;
21959;SDS011;11144;43.030;25.108;2023-04-01T05:30:15;28.25;;;12.57;;
21959;SDS011;11144;43.030;25.108;2023-04-01T05:32:11;22.30;;;11.70;;
21959;SDS011;11144;43.030;25.108;2023-04-01T05:33:46;28.20;;;12.48;;
21959;SDS011;11144;43.030;25.108;2023-04-01T05:35:20;35.70;;;17.20;;
21959;SDS011;11144;43.030;25.108;2023-04-01T05:36:53;44.17;;;21.33;;
21959;SDS011;11144;43.030;25.108;2023-04-01T05:38:25;43.08;;;22.45;;
21959;SDS011;11144;43.030;25.108;2023-04-01T05:39:58;41.25;;;21.38;;
21959;SDS011;11144;43.030;25.108;2023-04-01T05:41:34;35.33;;;20.13;;
21959;SDS011;11144;43.030;25.108;2023-04-01T05:43:08;51.75;;;27.23;;
21959;SDS011;11144;43.030;25.108;2023-04-01T05:44:42;39.72;;;20.67;;
21959;SDS011;11144;43.030;25.108;2023-04-01T05:46:34;32.00;;;18.65;;
21959;SDS011;11144;43.030;25.108;2023-04-01T05:48:24;32.83;;;18.52;;
21959;SDS011;11144;43.030;25.108;2023-04-01T05:49:59;32.50;;;18.70;;
21959;SDS011;11144;43.030;25.108;2023-04-01T05:51:32;38.85;;;20.92;;
21959;SDS011;11144;43.030;25.108;2023-04-01T05:53:06;38.20;;;21.50;;
21959;SDS011;11144;43.030;25.108;2023-04-01T05:54:40;40.28;;;20.88;;
21959;SDS011;11144;43.030;25.108;2023-04-01T05:56:14;43.75;;;21.13;;
21959;SDS011;11144;43.030;25.108;2023-04-01T05:57:53;36.83;;;19.65;;
21959;SDS011;11144;43.030;25.108;2023-04-01T05:59:27;39.75;;;21.55;;
21959;SDS011;11144;43.030;25.108;2023-04-01T06:01:03;36.10;;;22.30;;
21959;SDS011;11144;43.030;25.108;2023-04-01T06:02:47;47.90;;;26.00;;
21959;SDS011;11144;43.030;25.108;2023-04-01T06:04:20;40.15;;;24.27;;
21959;SDS011;11144;43.030;25.108;2023-04-01T06:05:55;46.63;;;28.70;;
21959;SDS011;11144;43.030;25.108;2023-04-01T06:07:30;48.20;;;28.98;;
21959;SDS011;11144;43.030;25.108;2023-04-01T06:09:06;45.53;;;27.85;;
21959;SDS011;11144;43.030;25.108;2023-04-01T06:10:55;45.15;;;26.50;;
21959;SDS011;11144;43.030;25.108;2023-04-01T06:12:40;41.55;;;24.02;;
21959;SDS011;11144;43.030;25.108;2023-04-01T06:14:26;42.90;;;24.63;;
21959;SDS011;11144;43.030;25.108;2023-04-01T06:16:10;55.60;;;26.60;;
21959;SDS011;11144;43.030;25.108;2023-04-01T06:18:04;40.25;;;23.50;;
21959;SDS011;11144;43.030;25.108;2023-04-01T06:20:00;38.80;;;21.83;;
21959;SDS011;11144;43.030;25.108;2023-04-01T06:23:55;34.45;;;19.50;;
21959;SDS011;11144;43.030;25.108;2023-04-01T06:27:38;32.40;;;17.60;;
21959;SDS011;11144;43.030;25.108;2023-04-01T06:29:29;24.58;;;15.40;;
21959;SDS011;11144;43.030;25.108;2023-04-01T06:31:30;25.52;;;14.88;;
21959;SDS011;11144;43.030;25.108;2023-04-01T06:33:30;26.80;;;13.93;;
21959;SDS011;11144;43.030;25.108;2023-04-01T06:37:16;27.20;;;16.70;;
21959;SDS011;11144;43.030;25.108;2023-04-01T06:39:20;26.83;;;16.95;;
21959;SDS011;11144;43.030;25.108;2023-04-01T06:41:03;30.65;;;15.52;;
21959;SDS011;11144;43.030;25.108;2023-04-01T06:42:58;26.45;;;15.20;;
21959;SDS011;11144;43.030;25.108;2023-04-01T06:45:22;22.13;;;10.32;;
21959;SDS011;11144;43.030;25.108;2023-04-01T06:47:28;23.08;;;12.55;;
21959;SDS011;11144;43.030;25.108;2023-04-01T06:49:40;26.85;;;15.90;;
21959;SDS011;11144;43.030;25.108;2023-04-01T06:51:41;16.67;;;9.93;;
21959;SDS011;11144;43.030;25.108;2023-04-01T06:53:46;25.10;;;14.70;;
21959;SDS011;11144;43.030;25.108;2023-04-01T06:56:07;16.00;;;10.13;;
21959;SDS011;11144;43.030;25.108;2023-04-01T06:58:19;20.20;;;10.15;;
21959;SDS011;11144;43.030;25.108;2023-04-01T06:59:55;16.00;;;9.63;;
21959;SDS011;11144;43.030;25.108;2023-04-01T07:01:33;16.35;;;10.32;;
21959;SDS011;11144;43.030;25.108;2023-04-01T07:03:17;17.33;;;10.00;;
21959;SDS011;11144;43.030;25.108;2023-04-01T07:04:54;22.65;;;12.95;;
21959;SDS011;11144;43.030;25.108;2023-04-01T07:06:31;25.92;;;16.40;;
21959;SDS011;11144;43.030;25.108;2023-04-01T07:08:09;29.83;;;17.08;;
21959;SDS011;11144;43.030;25.108;2023-04-01T07:09:48;40.25;;;21.73;;
21959;SDS011;11144;43.030;25.108;2023-04-01T07:11:34;38.35;;;22.15;;
21959;SDS011;11144;43.030;25.108;2023-04-01T07:13:29;39.95;;;21.25;;
21959;SDS011;11144;43.030;25.108;2023-04-01T07:15:18;41.20;;;23.88;;
21959;SDS011;11144;43.030;25.108;2023-04-01T07:16:54;59.60;;;32.38;;
21959;SDS011;11144;43.030;25.108;2023-04-01T07:18:34;55.30;;;31.58;;
21959;SDS011;11144;43.030;25.108;2023-04-01T07:20:17;39.78;;;23.98;;
21959;SDS011;11144;43.030;25.108;2023-04-01T07:21:56;41.17;;;22.77;;
21959;SDS011;11144;43.030;25.108;2023-04-01T07:23:47;41.97;;;23.65;;
21959;SDS011;11144;43.030;25.108;2023-04-01T07:25:38;40.85;;;24.98;;
21959;SDS011;11144;43.030;25.108;2023-04-01T07:27:47;42.83;;;26.77;;
21959;SDS011;11144;43.030;25.108;2023-04-01T07:29:21;53.20;;;30.58;;
21959;SDS011;11144;43.030;25.108;2023-04-01T07:30:59;52.88;;;32.55;;
21959;SDS011;11144;43.030;25.108;2023-04-01T07:32:44;52.63;;;30.67;;
21959;SDS011;11144;43.030;25.108;2023-04-01T07:34:25;95.10;;;47.13;;
21959;SDS011;11144;43.030;25.108;2023-04-01T07:36:02;107.28;;;50.42;;
21959;SDS011;11144;43.030;25.108;2023-04-01T07:37:43;73.38;;;37.50;;
21959;SDS011;11144;43.030;25.108;2023-04-01T07:39:26;70.35;;;35.83;;
21959;SDS011;11144;43.030;25.108;2023-04-01T07:41:18;60.58;;;31.92;;
21959;SDS011;11144;43.030;25.108;2023-04-01T07:43:05;41.50;;;23.85;;
21959;SDS011;11144;43.030;25.108;2023-04-01T07:45:23;41.40;;;22.35;;
21959;SDS011;11144;43.030;25.108;2023-04-01T07:47:09;32.70;;;17.67;;
21959;SDS011;11144;43.030;25.108;2023-04-01T07:48:53;34.75;;;17.55;;
21959;SDS011;11144;43.030;25.108;2023-04-01T07:50:31;26.60;;;14.48;;
21959;SDS011;11144;43.030;25.108;2023-04-01T07:52:12;18.63;;;12.43;;
21959;SDS011;11144;43.030;25.108;2023-04-01T07:53:59;32.00;;;13.57;;
21959;SDS011;11144;43.030;25.108;2023-04-01T07:55:41;22.25;;;12.70;;
21959;SDS011;11144;43.030;25.108;2023-04-01T07:57:21;22.27;;;11.15;;
21959;SDS011;11144;43.030;25.108;2023-04-01T07:59:01;20.88;;;11.73;;
21959;SDS011;11144;43.030;25.108;2023-04-01T08:01:04;18.77;;;10.38;;
21959;SDS011;11144;43.030;25.108;2023-04-01T08:02:56;23.58;;;10.30;;
21959;SDS011;11144;43.030;25.108;2023-04-01T08:04:53;20.55;;;11.85;;
21959;SDS011;11144;43.030;25.108;2023-04-01T08:06:37;17.40;;;9.52;;
21959;SDS011;11144;43.030;25.108;2023-04-01T08:08:18;19.98;;;8.63;;
21959;SDS011;11144;43.030;25.108;2023-04-01T08:10:09;22.77;;;12.18;;
21959;SDS011;11144;43.030;25.108;2023-04-01T08:12:11;16.92;;;9.13;;
21959;SDS011;11144;43.030;25.108;2023-04-01T08:14:08;17.30;;;8.57;;
21959;SDS011;11144;43.030;25.108;2023-04-01T08:16:09;12.52;;;8.63;;
21959;SDS011;11144;43.030;25.108;2023-04-01T08:17:57;12.98;;;6.95;;
21959;SDS011;11144;43.030;25.108;2023-04-01T08:19:46;13.38;;;8.27;;
21959;SDS011;11144;43.030;25.108;2023-04-01T08:21:35;12.85;;;8.13;;
21959;SDS011;11144;43.030;25.108;2023-04-01T08:23:15;14.68;;;7.80;;
21959;SDS011;11144;43.030;25.108;2023-04-01T08:24:51;17.58;;;9.88;;
21959;SDS011;11144;43.030;25.108;2023-04-01T08:26:30;16.60;;;9.23;;
21959;SDS011;11144;43.030;25.108;2023-04-01T08:28:09;18.13;;;9.35;;
21959;SDS011;11144;43.030;25.108;2023-04-01T08:29:49;18.15;;;8.60;;
21959;SDS011;11144;43.030;25.108;2023-04-01T08:31:29;26.88;;;12.98;;
21959;SDS011;11144;43.030;25.108;2023-04-01T08:33:10;26.63;;;15.60;;
21959;SDS011;11144;43.030;25.108;2023-04-01T08:34:54;15.88;;;8.48;;
21959;SDS011;11144;43.030;25.108;2023-04-01T08:36:40;20.60;;;11.32;;
21959;SDS011;11144;43.030;25.108;2023-04-01T08:38:21;25.45;;;12.63;;
21959;SDS011;11144;43.030;25.108;2023-04-01T08:40:00;19.50;;;9.57;;
21959;SDS011;11144;43.030;25.108;2023-04-01T08:45:59;16.00;;;9.48;;
21959;SDS011;11144;43.030;25.108;2023-04-01T08:47:52;14.15;;;9.23;;
21959;SDS011;11144;43.030;25.108;2023-04-01T08:49:45;18.05;;;9.85;;
21959;SDS011;11144;43.030;25.108;2023-04-01T08:54:18;16.95;;;8.57;;
21959;SDS011;11144;43.030;25.108;2023-04-01T08:56:06;18.05;;;9.23;;
21959;SDS011;11144;43.030;25.108;2023-04-01T09:00:25;17.95;;;7.47;;
21959;SDS011;11144;43.030;25.108;2023-04-01T09:04:41;19.45;;;7.40;;
21959;SDS011;11144;43.030;25.108;2023-04-01T09:06:43;14.25;;;7.25;;
21959;SDS011;11144;43.030;25.108;2023-04-01T09:08:44;23.40;;;10.80;;
21959;SDS011;11144;43.030;25.108;2023-04-01T09:10:45;18.88;;;10.80;;
21959;SDS011;11144;43.030;25.108;2023-04-01T09:12:59;16.60;;;9.98;;
21959;SDS011;11144;43.030;25.108;2023-04-01T09:14:51;25.00;;;12.82;;
21959;SDS011;11144;43.030;25.108;2023-04-01T09:17:05;19.45;;;13.57;;
21959;SDS011;11144;43.030;25.108;2023-04-01T09:19:10;20.77;;;10.98;;
21959;SDS011;11144;43.030;25.108;2023-04-01T09:22:51;22.33;;;11.88;;
21959;SDS011;11144;43.030;25.108;2023-04-01T09:24:44;21.30;;;11.00;;
21959;SDS011;11144;43.030;25.108;2023-04-01T09:26:35;15.23;;;10.13;;
21959;SDS011;11144;43.030;25.108;2023-04-01T09:28:42;20.23;;;11.85;;
21959;SDS011;11144;43.030;25.108;2023-04-01T09:30:34;20.52;;;9.88;;
21959;SDS011;11144;43.030;25.108;2023-04-01T09:32:42;15.85;;;9.25;;
21959;SDS011;11144;43.030;25.108;2023-04-01T09:36:44;18.48;;;8.82;;
21959;SDS011;11144;43.030;25.108;2023-04-01T09:38:21;17.38;;;8.88;;
21959;SDS011;11144;43.030;25.108;2023-04-01T09:40:02;15.48;;;8.02;;
21959;SDS011;11144;43.030;25.108;2023-04-01T09:41:47;14.80;;;8.07;;
21959;SDS011;11144;43.030;25.108;2023-04-01T09:43:47;17.45;;;8.90;;
21959;SDS011;11144;43.030;25.108;2023-04-01T09:45:37;13.40;;;8.27;;
21959;SDS011;11144;43.030;25.108;2023-04-01T09:47:25;27.13;;;13.75;;
21959;SDS011;11144;43.030;25.108;2023-04-01T09:49:26;29.42;;;14.35;;
21959;SDS011;11144;43.030;25.108;2023-04-01T09:51:16;19.00;;;11.88;;
21959;SDS011;11144;43.030;25.108;2023-04-01T09:53:03;22.02;;;11.65;;
21959;SDS011;11144;43.030;25.108;2023-04-01T09:54:52;30.17;;;14.98;;
21959;SDS011;11144;43.030;25.108;2023-04-01T09:56:41;27.45;;;16.52;;
21959;SDS011;11144;43.030;25.108;2023-04-01T09:58:52;25.83;;;15.35;;
21959;SDS011;11144;43.030;25.108;2023-04-01T10:01:11;42.33;;;20.80;;
21959;SDS011;11144;43.030;25.108;2023-04-01T10:03:50;39.63;;;21.13;;
21959;SDS011;11144;43.030;25.108;2023-04-01T10:08:17;29.45;;;17.80;;
21959;SDS011;11144;43.030;25.108;2023-04-01T10:12:05;15.32;;;8.27;;
21959;SDS011;11144;43.030;25.108;2023-04-01T10:14:16;12.45;;;6.50;;
21959;SDS011;11144;43.030;25.108;2023-04-01T10:16:10;9.98;;;5.63;;
21959;SDS011;11144;43.030;25.108;2023-04-01T10:18:09;13.00;;;6.85;;
21959;SDS011;11144;43.030;25.108;2023-04-01T10:22:51;10.75;;;5.60;;
21959;SDS011;11144;43.030;25.108;2023-04-01T10:24:52;14.10;;;7.10;;
21959;SDS011;11144;43.030;25.108;2023-04-01T10:26:48;27.88;;;13.43;;